EAL8 SEGU-KMIA
Flight info
| Callsign | EAL8 |
|---|---|
| Flight time | N/A |
| Altitude | 32000 |
| Route | TOLAV2 UGUPI UL780 BUXOS/N0507F340 UL780 TBG UL465 ARNAL/N0499F360 UL465 GCM UG448 ATUVI/N0494F370 DCT XOPLI/N0497F360 UG448 IKBIX SNDBR3 |
| Aircraft | L101/H-SDFGHIRWXY/S |
Departure
| Time | 2026-05-06 06:16 |
|---|---|
| Airport | José Joaquín de Olmedo International Airport (SEGU) |
Arrival
| Time | N/A |
|---|---|
| Airport | Miami International Airport (KMIA) |
| Time | Latitude | Longitude | Altitude | Speed | Heading |
|---|---|---|---|---|---|
| 2026-05-06 05:52 | -2.15616 | -79.88399 | 27 ft | 0 kts | 298° |
| 2026-05-06 06:07 | -2.15616 | -79.88400 | 27 ft | 0 kts | 298° |
| 2026-05-06 06:08 | -2.15618 | -79.88394 | 27 ft | 2 kts | 298° |
| 2026-05-06 06:08 | -2.15627 | -79.88379 | 27 ft | 3 kts | 298° |
| 2026-05-06 06:08 | -2.15633 | -79.88368 | 27 ft | 3 kts | 298° |
| 2026-05-06 06:09 | -2.15644 | -79.88351 | 27 ft | 3 kts | 331° |
| 2026-05-06 06:09 | -2.15662 | -79.88349 | 27 ft | 2 kts | 29° |
| 2026-05-06 06:09 | -2.15663 | -79.88349 | 27 ft | 0 kts | 30° |
| 2026-05-06 06:10 | -2.15652 | -79.88344 | 27 ft | 4 kts | 29° |
| 2026-05-06 06:11 | -2.15615 | -79.88319 | 27 ft | 9 kts | 33° |
| 2026-05-06 06:11 | -2.15547 | -79.88277 | 27 ft | 13 kts | 29° |
| 2026-05-06 06:11 | -2.15474 | -79.88236 | 27 ft | 11 kts | 29° |
| 2026-05-06 06:11 | -2.15411 | -79.88200 | 27 ft | 10 kts | 29° |
| 2026-05-06 06:12 | -2.15355 | -79.88169 | 27 ft | 8 kts | 24° |
| 2026-05-06 06:12 | -2.15301 | -79.88190 | 27 ft | 10 kts | 321° |
| 2026-05-06 06:12 | -2.15237 | -79.88194 | 27 ft | 10 kts | 20° |
| 2026-05-06 06:12 | -2.15176 | -79.88165 | 27 ft | 9 kts | 26° |
| 2026-05-06 06:13 | -2.15120 | -79.88137 | 27 ft | 9 kts | 27° |
| 2026-05-06 06:13 | -2.15065 | -79.88108 | 27 ft | 10 kts | 27° |
| 2026-05-06 06:13 | -2.14994 | -79.88070 | 27 ft | 13 kts | 27° |
| 2026-05-06 06:13 | -2.14904 | -79.88024 | 27 ft | 16 kts | 27° |
| 2026-05-06 06:14 | -2.14805 | -79.87972 | 27 ft | 15 kts | 27° |
| 2026-05-06 06:14 | -2.14724 | -79.87928 | 27 ft | 11 kts | 31° |
| 2026-05-06 06:14 | -2.14664 | -79.87882 | 27 ft | 11 kts | 50° |
| 2026-05-06 06:14 | -2.14628 | -79.87815 | 27 ft | 11 kts | 70° |
| 2026-05-06 06:15 | -2.14622 | -79.87739 | 27 ft | 11 kts | 113° |
| 2026-05-06 06:15 | -2.14682 | -79.87710 | 27 ft | 12 kts | 188° |
| 2026-05-06 06:15 | -2.14783 | -79.87754 | 27 ft | 22 kts | 209° |
| 2026-05-06 06:15 | -2.15015 | -79.87871 | 27 ft | 57 kts | 211° |
| 2026-05-06 06:16 | -2.15510 | -79.88134 | 27 ft | 105 kts | 207° |
| 2026-05-06 06:16 | -2.16289 | -79.88544 | 28 ft | 149 kts | 208° |
| 2026-05-06 06:16 | -2.17263 | -79.89110 | 171 ft | 170 kts | 212° |
| 2026-05-06 06:16 | -2.18246 | -79.89796 | 697 ft | 174 kts | 214° |
| 2026-05-06 06:17 | -2.19216 | -79.90546 | 1289 ft | 178 kts | 218° |
| 2026-05-06 06:17 | -2.20139 | -79.91319 | 1948 ft | 164 kts | 220° |
| 2026-05-06 06:17 | -2.21007 | -79.92018 | 2388 ft | 156 kts | 220° |
| 2026-05-06 06:17 | -2.21619 | -79.92828 | 2729 ft | 145 kts | 259° |
| 2026-05-06 06:18 | -2.21340 | -79.93808 | 3013 ft | 162 kts | 311° |
| 2026-05-06 06:18 | -2.20329 | -79.94422 | 3379 ft | 182 kts | 335° |
| 2026-05-06 06:18 | -2.19026 | -79.94819 | 3550 ft | 212 kts | 353° |
| 2026-05-06 06:18 | -2.17477 | -79.94702 | 3750 ft | 235 kts | 14° |
| 2026-05-06 06:19 | -2.15948 | -79.94061 | 4219 ft | 248 kts | 26° |
| 2026-05-06 06:19 | -2.14401 | -79.93242 | 4700 ft | 256 kts | 24° |
| 2026-05-06 06:19 | -2.12708 | -79.92597 | 5176 ft | 263 kts | 17° |
| 2026-05-06 06:19 | -2.10955 | -79.92072 | 5655 ft | 267 kts | 14° |
| 2026-05-06 06:20 | -2.09123 | -79.91608 | 6130 ft | 274 kts | 11° |
| 2026-05-06 06:20 | -2.07237 | -79.91277 | 6612 ft | 277 kts | 6° |
| 2026-05-06 06:20 | -2.05307 | -79.91093 | 7091 ft | 279 kts | 2° |
| 2026-05-06 06:20 | -2.03365 | -79.91033 | 7583 ft | 279 kts | 359° |
| 2026-05-06 06:21 | -2.01432 | -79.91068 | 8081 ft | 279 kts | 357° |
| 2026-05-06 06:21 | -1.99483 | -79.91175 | 8588 ft | 281 kts | 356° |
| 2026-05-06 06:21 | -1.97534 | -79.91335 | 9085 ft | 283 kts | 355° |
| 2026-05-06 06:21 | -1.95577 | -79.91532 | 9583 ft | 285 kts | 355° |
| 2026-05-06 06:22 | -1.93596 | -79.91760 | 10084 ft | 288 kts | 354° |
| 2026-05-06 06:22 | -1.91585 | -79.92009 | 10477 ft | 295 kts | 355° |
| 2026-05-06 06:22 | -1.89526 | -79.92279 | 10857 ft | 302 kts | 354° |
| 2026-05-06 06:22 | -1.87426 | -79.92564 | 11244 ft | 309 kts | 353° |
| 2026-05-06 06:23 | -1.85284 | -79.92862 | 11666 ft | 313 kts | 352° |
| 2026-05-06 06:23 | -1.83120 | -79.93168 | 12152 ft | 314 kts | 351° |
| 2026-05-06 06:23 | -1.80979 | -79.93476 | 12698 ft | 313 kts | 350° |
| 2026-05-06 06:23 | -1.78822 | -79.93787 | 13232 ft | 312 kts | 349° |
| 2026-05-06 06:24 | -1.76671 | -79.94099 | 13728 ft | 312 kts | 349° |
| 2026-05-06 06:24 | -1.74542 | -79.94408 | 14359 ft | 305 kts | 347° |
| 2026-05-06 06:24 | -1.72476 | -79.94706 | 14990 ft | 299 kts | 347° |
| 2026-05-06 06:24 | -1.70428 | -79.95005 | 15511 ft | 296 kts | 348° |
| 2026-05-06 06:25 | -1.68386 | -79.95303 | 15909 ft | 297 kts | 348° |
| 2026-05-06 06:25 | -1.66345 | -79.95609 | 16333 ft | 296 kts | 349° |
| 2026-05-06 06:25 | -1.62196 | -79.96223 | 16957 ft | 319 kts | 350° |
| 2026-05-06 06:26 | -1.59948 | -79.96555 | 17178 ft | 333 kts | 350° |
| 2026-05-06 06:26 | -1.57633 | -79.96894 | 17434 ft | 341 kts | 348° |
| 2026-05-06 06:26 | -1.55273 | -79.97237 | 17734 ft | 345 kts | 349° |
| 2026-05-06 06:26 | -1.52895 | -79.97584 | 18039 ft | 347 kts | 350° |
| 2026-05-06 06:27 | -1.50503 | -79.97925 | 18417 ft | 346 kts | 351° |
| 2026-05-06 06:27 | -1.48110 | -79.98166 | 18769 ft | 347 kts | 350° |
| 2026-05-06 06:27 | -1.45685 | -79.98331 | 18868 ft | 356 kts | 352° |
| 2026-05-06 06:27 | -1.43176 | -79.98456 | 18913 ft | 364 kts | 353° |
| 2026-05-06 06:28 | -1.40640 | -79.98553 | 19207 ft | 365 kts | 354° |
| 2026-05-06 06:28 | -1.38119 | -79.98628 | 19578 ft | 363 kts | 352° |
| 2026-05-06 06:28 | -1.35579 | -79.98696 | 19656 ft | 371 kts | 352° |
| 2026-05-06 06:28 | -1.32941 | -79.98768 | 19450 ft | 387 kts | 352° |
| 2026-05-06 06:29 | -1.30193 | -79.98844 | 19232 ft | 402 kts | 353° |
| 2026-05-06 06:29 | -1.27371 | -79.98914 | 19395 ft | 406 kts | 354° |
| 2026-05-06 06:29 | -1.24533 | -79.98979 | 19576 ft | 411 kts | 355° |
| 2026-05-06 06:29 | -1.21687 | -79.99041 | 19747 ft | 411 kts | 356° |
| 2026-05-06 06:30 | -1.18808 | -79.99101 | 20030 ft | 418 kts | 356° |
| 2026-05-06 06:30 | -1.15882 | -79.99161 | 20331 ft | 423 kts | 356° |
| 2026-05-06 06:30 | -1.12936 | -79.99220 | 20632 ft | 428 kts | 357° |
| 2026-05-06 06:30 | -1.09945 | -79.99280 | 20934 ft | 432 kts | 357° |
| 2026-05-06 06:31 | -1.06924 | -79.99341 | 21236 ft | 435 kts | 358° |
| 2026-05-06 06:31 | -1.03886 | -79.99402 | 21530 ft | 438 kts | 359° |
| 2026-05-06 06:31 | -1.00835 | -79.99464 | 21790 ft | 441 kts | 358° |
| 2026-05-06 06:31 | -0.97775 | -79.99525 | 22042 ft | 443 kts | 358° |
| 2026-05-06 06:32 | -0.94678 | -79.99588 | 22294 ft | 445 kts | 359° |
| 2026-05-06 06:32 | -0.91568 | -79.99651 | 22545 ft | 447 kts | 359° |
| 2026-05-06 06:32 | -0.88462 | -79.99714 | 22796 ft | 449 kts | 359° |
| 2026-05-06 06:32 | -0.85341 | -79.99779 | 23048 ft | 449 kts | 0° |
| 2026-05-06 06:33 | -0.82211 | -79.99844 | 23299 ft | 450 kts | 0° |
| 2026-05-06 06:33 | -0.79093 | -79.99908 | 23547 ft | 451 kts | 0° |
| 2026-05-06 06:33 | -0.75940 | -79.99972 | 23798 ft | 453 kts | 0° |
| 2026-05-06 06:33 | -0.72788 | -80.00037 | 24048 ft | 455 kts | 0° |
| 2026-05-06 06:34 | -0.69615 | -80.00103 | 24300 ft | 456 kts | 1° |
| 2026-05-06 06:34 | -0.66457 | -80.00169 | 24550 ft | 457 kts | 1° |
| 2026-05-06 06:34 | -0.63276 | -80.00236 | 24800 ft | 458 kts | 1° |
| 2026-05-06 06:34 | -0.60092 | -80.00302 | 25050 ft | 459 kts | 1° |
| 2026-05-06 06:35 | -0.56891 | -80.00369 | 25301 ft | 460 kts | 1° |
| 2026-05-06 06:35 | -0.53695 | -80.00436 | 25551 ft | 462 kts | 1° |
| 2026-05-06 06:35 | -0.50489 | -80.00504 | 25801 ft | 463 kts | 1° |
| 2026-05-06 06:35 | -0.47258 | -80.00571 | 26046 ft | 464 kts | 1° |
| 2026-05-06 06:36 | -0.44018 | -80.00639 | 26245 ft | 466 kts | 1° |
| 2026-05-06 06:36 | -0.40784 | -80.00708 | 26426 ft | 467 kts | 1° |
| 2026-05-06 06:36 | -0.37548 | -80.00776 | 26602 ft | 467 kts | 1° |
| 2026-05-06 06:36 | -0.34284 | -80.00845 | 26780 ft | 468 kts | 1° |
| 2026-05-06 06:37 | -0.31033 | -80.00915 | 26956 ft | 467 kts | 1° |
| 2026-05-06 06:37 | -0.27800 | -80.00984 | 27130 ft | 467 kts | 1° |
| 2026-05-06 06:37 | -0.24576 | -80.01053 | 27304 ft | 467 kts | 1° |
| 2026-05-06 06:37 | -0.21312 | -80.01123 | 27480 ft | 467 kts | 1° |
| 2026-05-06 06:38 | -0.18049 | -80.01193 | 27656 ft | 468 kts | 1° |
| 2026-05-06 06:38 | -0.14805 | -80.01262 | 27827 ft | 470 kts | 0° |
| 2026-05-06 06:38 | -0.11519 | -80.01322 | 28002 ft | 473 kts | 1° |
| 2026-05-06 06:39 | -0.06849 | -80.01157 | 28258 ft | 474 kts | 6° |
| 2026-05-06 06:39 | -0.03558 | -80.00898 | 28434 ft | 475 kts | 7° |
| 2026-05-06 06:39 | -0.00271 | -80.00570 | 28593 ft | 477 kts | 6° |
| 2026-05-06 06:39 | 0.03039 | -80.00198 | 28738 ft | 480 kts | 4° |
| 2026-05-06 06:40 | 0.06349 | -79.99803 | 28885 ft | 481 kts | 5° |
| 2026-05-06 06:40 | 0.09680 | -79.99394 | 29035 ft | 482 kts | 5° |
| 2026-05-06 06:40 | 0.13019 | -79.98978 | 29194 ft | 483 kts | 5° |
| 2026-05-06 06:40 | 0.16329 | -79.98563 | 29366 ft | 483 kts | 5° |
| 2026-05-06 06:41 | 0.19680 | -79.98143 | 29559 ft | 484 kts | 5° |
| 2026-05-06 06:41 | 0.23023 | -79.97724 | 29758 ft | 485 kts | 5° |
| 2026-05-06 06:41 | 0.26374 | -79.97306 | 29958 ft | 486 kts | 5° |
| 2026-05-06 06:41 | 0.29709 | -79.96892 | 30159 ft | 486 kts | 5° |
| 2026-05-06 06:42 | 0.33083 | -79.96475 | 30378 ft | 487 kts | 5° |
| 2026-05-06 06:42 | 0.36439 | -79.96061 | 30601 ft | 488 kts | 5° |
| 2026-05-06 06:42 | 0.39823 | -79.95646 | 30827 ft | 489 kts | 5° |
| 2026-05-06 06:42 | 0.43201 | -79.95232 | 31052 ft | 490 kts | 5° |
| 2026-05-06 06:43 | 0.46575 | -79.94820 | 31279 ft | 491 kts | 5° |
| 2026-05-06 06:43 | 0.49974 | -79.94406 | 31505 ft | 492 kts | 5° |
| 2026-05-06 06:43 | 0.53376 | -79.93993 | 31689 ft | 495 kts | 6° |
| 2026-05-06 06:44 | 0.60298 | -79.93154 | 31854 ft | 509 kts | 6° |
| 2026-05-06 06:44 | 0.67381 | -79.92296 | 31860 ft | 519 kts | 6° |
| 2026-05-06 06:45 | 0.74611 | -79.91421 | 31857 ft | 525 kts | 6° |
| 2026-05-06 06:45 | 0.81894 | -79.90540 | 31856 ft | 531 kts | 6° |
| 2026-05-06 06:46 | 0.89404 | -79.89632 | 31855 ft | 535 kts | 6° |
| 2026-05-06 06:46 | 0.96810 | -79.88737 | 31854 ft | 537 kts | 6° |
| 2026-05-06 06:47 | 1.04224 | -79.87842 | 31854 ft | 537 kts | 6° |
| 2026-05-06 06:47 | 1.11577 | -79.86954 | 31854 ft | 535 kts | 6° |
| 2026-05-06 06:48 | 1.18984 | -79.86061 | 31855 ft | 533 kts | 6° |
| 2026-05-06 06:48 | 1.26330 | -79.85174 | 31856 ft | 531 kts | 6° |
| 2026-05-06 06:49 | 1.33657 | -79.84292 | 31858 ft | 530 kts | 6° |
| 2026-05-06 06:49 | 1.40968 | -79.83476 | 31858 ft | 530 kts | 4° |
| 2026-05-06 06:50 | 1.48347 | -79.82945 | 31862 ft | 529 kts | 2° |
| 2026-05-06 06:50 | 1.55675 | -79.82566 | 31862 ft | 529 kts | 1° |
| 2026-05-06 06:51 | 1.63029 | -79.82241 | 31865 ft | 529 kts | 1° |
| 2026-05-06 06:51 | 1.70359 | -79.81935 | 31868 ft | 528 kts | 1° |
| 2026-05-06 06:52 | 1.77703 | -79.81631 | 31870 ft | 528 kts | 1° |
| 2026-05-06 06:52 | 1.85037 | -79.81325 | 31872 ft | 528 kts | 3° |
| 2026-05-06 06:53 | 1.92366 | -79.81016 | 31872 ft | 530 kts | 2° |
| 2026-05-06 06:53 | 1.99718 | -79.80702 | 31875 ft | 531 kts | 2° |
| 2026-05-06 06:54 | 2.07123 | -79.80381 | 31877 ft | 531 kts | 2° |
| 2026-05-06 06:54 | 2.14518 | -79.80059 | 31880 ft | 532 kts | 2° |
| 2026-05-06 06:55 | 2.21892 | -79.79736 | 31882 ft | 532 kts | 2° |
| 2026-05-06 06:55 | 2.29283 | -79.79411 | 31883 ft | 532 kts | 2° |
| 2026-05-06 06:56 | 2.36669 | -79.79085 | 31883 ft | 532 kts | 2° |
| 2026-05-06 06:56 | 2.44063 | -79.78758 | 31885 ft | 532 kts | 2° |
| 2026-05-06 06:57 | 2.51436 | -79.78431 | 31885 ft | 532 kts | 2° |
| 2026-05-06 06:57 | 2.58824 | -79.78104 | 31886 ft | 532 kts | 2° |
| 2026-05-06 06:58 | 2.66200 | -79.77776 | 31888 ft | 531 kts | 2° |
| 2026-05-06 06:58 | 2.73590 | -79.77448 | 31890 ft | 531 kts | 1° |
| 2026-05-06 06:59 | 2.80964 | -79.77121 | 31897 ft | 531 kts | 1° |
| 2026-05-06 06:59 | 2.88315 | -79.76793 | 31906 ft | 530 kts | 1° |
| 2026-05-06 07:00 | 2.95678 | -79.76466 | 31910 ft | 529 kts | 1° |
| 2026-05-06 07:00 | 3.03007 | -79.76140 | 31909 ft | 528 kts | 1° |
| 2026-05-06 07:01 | 3.10349 | -79.75814 | 31910 ft | 528 kts | 1° |
| 2026-05-06 07:01 | 3.17677 | -79.75488 | 31911 ft | 528 kts | 1° |
| 2026-05-06 07:02 | 3.25027 | -79.75162 | 31911 ft | 528 kts | 1° |
| 2026-05-06 07:02 | 3.32344 | -79.74837 | 31912 ft | 528 kts | 1° |
| 2026-05-06 07:03 | 3.38455 | -79.74565 | 31912 ft | 527 kts | 1° |
| 2026-05-06 07:03 | 3.45769 | -79.74240 | 31912 ft | 527 kts | 1° |
| 2026-05-06 07:04 | 3.53103 | -79.73914 | 31912 ft | 527 kts | 1° |
| 2026-05-06 07:04 | 3.60432 | -79.73587 | 31912 ft | 527 kts | 1° |
| 2026-05-06 07:05 | 3.67743 | -79.73262 | 31916 ft | 527 kts | 1° |
| 2026-05-06 07:05 | 3.75088 | -79.72935 | 31916 ft | 528 kts | 1° |
| 2026-05-06 07:06 | 3.82424 | -79.72609 | 31920 ft | 528 kts | 1° |
| 2026-05-06 07:06 | 3.89750 | -79.72283 | 31927 ft | 529 kts | 1° |
| 2026-05-06 07:07 | 3.97110 | -79.71956 | 31932 ft | 530 kts | 1° |
| 2026-05-06 07:07 | 4.04449 | -79.71629 | 31933 ft | 530 kts | 1° |
| 2026-05-06 07:08 | 4.11845 | -79.71300 | 31989 ft | 530 kts | 1° |
| 2026-05-06 07:08 | 4.15512 | -79.71136 | 32100 ft | 530 kts | 1° |
| 2026-05-06 07:08 | 4.19182 | -79.70973 | 32221 ft | 529 kts | 1° |
| 2026-05-06 07:08 | 4.22855 | -79.70809 | 32345 ft | 528 kts | 2° |
| 2026-05-06 07:09 | 4.26533 | -79.70645 | 32470 ft | 528 kts | 1° |
| 2026-05-06 07:09 | 4.30189 | -79.70482 | 32594 ft | 527 kts | 1° |
| 2026-05-06 07:09 | 4.33839 | -79.70319 | 32711 ft | 526 kts | 1° |
| 2026-05-06 07:10 | 4.41162 | -79.69993 | 32811 ft | 528 kts | 2° |
| 2026-05-06 07:10 | 4.48469 | -79.69668 | 32950 ft | 527 kts | 2° |
| 2026-05-06 07:11 | 4.55791 | -79.69342 | 33099 ft | 527 kts | 2° |
| 2026-05-06 07:11 | 4.63136 | -79.69016 | 33249 ft | 526 kts | 3° |
| 2026-05-06 07:12 | 4.70428 | -79.68691 | 33398 ft | 525 kts | 3° |
| 2026-05-06 07:12 | 4.77691 | -79.68367 | 33547 ft | 524 kts | 3° |
| 2026-05-06 07:13 | 4.85004 | -79.68041 | 33696 ft | 523 kts | 3° |
| 2026-05-06 07:13 | 4.92276 | -79.67717 | 33810 ft | 523 kts | 3° |
| 2026-05-06 07:14 | 4.99514 | -79.67396 | 33981 ft | 520 kts | 4° |
| 2026-05-06 07:14 | 5.06727 | -79.67076 | 34143 ft | 518 kts | 3° |
| 2026-05-06 07:15 | 5.13940 | -79.66760 | 34088 ft | 521 kts | 4° |
| 2026-05-06 07:15 | 5.21142 | -79.66499 | 34298 ft | 516 kts | 3° |
| 2026-05-06 07:16 | 5.28283 | -79.66278 | 34419 ft | 514 kts | 3° |
| 2026-05-06 07:16 | 5.35423 | -79.66074 | 34602 ft | 511 kts | 2° |
| 2026-05-06 07:17 | 5.42519 | -79.65876 | 34602 ft | 512 kts | 2° |
| 2026-05-06 07:17 | 5.49641 | -79.65678 | 34593 ft | 512 kts | 2° |
| 2026-05-06 07:17 | 5.53198 | -79.65580 | 34695 ft | 510 kts | 2° |
| 2026-05-06 07:18 | 5.56743 | -79.65482 | 34763 ft | 509 kts | 2° |
| 2026-05-06 07:18 | 5.63850 | -79.65283 | 34623 ft | 513 kts | 2° |
| 2026-05-06 07:19 | 5.70967 | -79.65085 | 34739 ft | 510 kts | 2° |
| 2026-05-06 07:19 | 5.78036 | -79.64887 | 34803 ft | 510 kts | 2° |
| 2026-05-06 07:20 | 5.85160 | -79.64687 | 34720 ft | 512 kts | 1° |
| 2026-05-06 07:20 | 5.92294 | -79.64484 | 34618 ft | 516 kts | 1° |
| 2026-05-06 07:21 | 5.99487 | -79.64282 | 34586 ft | 517 kts | 1° |
| 2026-05-06 07:21 | 6.03071 | -79.64181 | 34698 ft | 515 kts | 1° |
| 2026-05-06 07:21 | 6.06645 | -79.64080 | 34791 ft | 514 kts | 1° |
| 2026-05-06 07:22 | 6.13800 | -79.63879 | 34687 ft | 517 kts | 1° |
| 2026-05-06 07:22 | 6.21003 | -79.63677 | 34748 ft | 516 kts | 1° |
| 2026-05-06 07:22 | 6.24581 | -79.63576 | 34850 ft | 514 kts | 1° |
| 2026-05-06 07:23 | 6.28156 | -79.63475 | 34878 ft | 514 kts | 1° |
| 2026-05-06 07:23 | 6.35323 | -79.63273 | 34734 ft | 518 kts | 1° |